createdAt,value
2018-09-26T00:02:08.012Z,12.90
2018-09-26T00:07:11.611Z,14.20
2018-09-26T00:12:15.236Z,12.63
2018-09-26T00:17:18.814Z,15.17
2018-09-26T00:22:22.317Z,13.20
2018-09-26T00:27:25.845Z,15.83
2018-09-26T00:32:29.394Z,11.57
2018-09-26T00:37:32.919Z,11.07
2018-09-26T00:42:36.799Z,10.10
2018-09-26T00:47:40.386Z,10.10
2018-09-26T00:52:44.282Z,9.63
2018-09-26T00:57:47.862Z,10.67
2018-09-26T01:02:51.363Z,9.53
2018-09-26T01:07:54.933Z,8.70
2018-09-26T01:12:58.645Z,11.87
2018-09-26T01:18:02.200Z,8.23
2018-09-26T01:23:05.772Z,9.33
2018-09-26T01:28:09.277Z,8.47
2018-09-26T01:33:12.785Z,9.30
2018-09-26T01:38:17.177Z,7.73
2018-09-26T01:43:20.733Z,12.03
2018-09-26T01:48:24.303Z,13.67
2018-09-26T01:53:27.804Z,7.40
2018-09-26T01:58:31.448Z,11.57
2018-09-26T02:03:34.875Z,11.23
2018-09-26T02:08:38.837Z,7.07
2018-09-26T02:13:42.358Z,7.10
2018-09-26T02:18:46.181Z,7.97
2018-09-26T02:23:49.825Z,7.00
2018-09-26T02:28:53.443Z,9.80
2018-09-26T02:33:57.028Z,8.53
2018-09-26T02:39:00.563Z,7.77
2018-09-26T02:44:04.150Z,10.93
2018-09-26T02:49:07.952Z,9.10
2018-09-26T02:54:11.572Z,8.80
2018-09-26T02:59:15.083Z,9.63
2018-09-26T03:04:18.626Z,7.37
2018-09-26T03:09:22.218Z,10.33
2018-09-26T03:14:25.884Z,9.57
2018-09-26T03:19:29.419Z,9.73
2018-09-26T03:24:33.068Z,7.83
2018-09-26T03:29:36.903Z,10.90
2018-09-26T03:34:40.404Z,8.70
2018-09-26T03:39:43.932Z,11.80
2018-09-26T03:44:47.498Z,9.87
2018-09-26T03:49:51.002Z,9.73
2018-09-26T03:54:54.549Z,9.67
2018-09-26T03:59:58.161Z,11.37
2018-09-26T04:05:01.732Z,10.93
2018-09-26T04:10:05.251Z,9.10
2018-09-26T04:15:08.865Z,9.20
2018-09-26T04:20:12.509Z,11.00
2018-09-26T04:25:16.103Z,18.87
2018-09-26T04:30:22.595Z,10.10
2018-09-26T04:35:26.163Z,8.03
2018-09-26T04:40:29.887Z,7.60
2018-09-26T04:45:33.408Z,7.50
2018-09-26T04:50:36.977Z,9.43
2018-09-26T04:55:40.470Z,8.27
2018-09-26T05:00:47.807Z,6.93
2018-09-26T05:05:51.477Z,6.33
2018-09-26T05:10:55.101Z,7.00
2018-09-26T05:15:58.629Z,7.23
2018-09-26T05:21:03.407Z,12.33
2018-09-26T05:26:07.168Z,10.30
2018-09-26T05:31:10.774Z,13.37
2018-09-26T05:36:14.355Z,13.07
2018-09-26T05:41:17.884Z,26.00
2018-09-26T05:46:21.547Z,22.23
2018-09-26T05:51:25.140Z,17.70
2018-09-26T05:56:28.748Z,10.70
2018-09-26T06:01:32.333Z,14.27
2018-09-26T06:06:35.975Z,8.90
2018-09-26T06:11:39.579Z,12.07
2018-09-26T06:16:43.133Z,16.10
2018-09-26T06:21:46.699Z,16.47
2018-09-26T06:26:50.207Z,11.57
2018-09-26T06:31:53.775Z,10.77
2018-09-26T06:36:57.400Z,9.53
2018-09-26T06:42:01.863Z,10.77
2018-09-26T06:47:05.567Z,10.83
2018-09-26T06:52:09.143Z,6.73
2018-09-26T06:57:14.424Z,12.17
2018-09-26T07:02:19.034Z,8.83
2018-09-26T07:07:26.337Z,6.20
2018-09-26T07:12:30.635Z,7.67
2018-09-26T07:17:35.640Z,7.20
2018-09-26T07:22:39.180Z,1.67
2018-09-26T07:27:42.696Z,0.87
2018-09-26T07:32:46.533Z,4.10
2018-09-26T07:37:50.104Z,3.60
2018-09-26T07:42:53.885Z,2.20
2018-09-26T07:47:57.521Z,4.07
2018-09-26T07:53:01.955Z,4.57
2018-09-26T07:58:05.614Z,4.20
2018-09-26T08:03:09.210Z,1.10
2018-09-26T08:08:12.900Z,4.63
2018-09-26T08:13:16.514Z,6.37
2018-09-26T08:18:20.207Z,7.17
2018-09-26T08:23:30.266Z,5.03
2018-09-26T08:28:38.551Z,4.17
2018-09-26T08:33:42.085Z,4.83
2018-09-26T08:38:45.760Z,2.87
2018-09-26T08:43:51.714Z,4.87
2018-09-26T08:48:59.092Z,8.63
2018-09-26T08:54:02.724Z,4.40
2018-09-26T08:59:06.663Z,2.53
2018-09-26T09:04:10.234Z,2.23
2018-09-26T09:09:13.864Z,6.07
2018-09-26T09:14:17.602Z,6.77
2018-09-26T09:19:21.052Z,9.57
2018-09-26T09:24:31.215Z,3.33
2018-09-26T09:29:34.817Z,2.57
2018-09-26T09:34:38.353Z,2.07
2018-09-26T09:39:41.955Z,4.23
2018-09-26T09:44:45.497Z,2.60
2018-09-26T09:49:49.047Z,5.93
2018-09-26T09:54:52.613Z,5.13
2018-09-26T09:59:56.206Z,6.60
2018-09-26T10:05:00.872Z,3.17
2018-09-26T10:10:04.425Z,4.03
2018-09-26T10:15:08.029Z,2.80
2018-09-26T10:20:11.600Z,5.27
2018-09-26T10:25:15.373Z,3.67
2018-09-26T10:30:28.414Z,3.30
2018-09-26T10:35:32.727Z,3.07
2018-09-26T10:40:36.331Z,4.23
2018-09-26T10:45:39.869Z,5.53
2018-09-26T10:50:43.506Z,2.87
2018-09-26T10:55:47.075Z,2.70
2018-09-26T11:00:50.566Z,4.40
2018-09-26T11:05:54.213Z,1.93
2018-09-26T11:10:57.749Z,5.50
2018-09-26T11:16:01.483Z,5.33
2018-09-26T11:21:05.167Z,4.47
2018-09-26T11:26:08.757Z,3.83
2018-09-26T11:31:12.471Z,3.30
2018-09-26T11:36:16.065Z,3.80
2018-09-26T11:41:22.523Z,5.10
2018-09-26T11:46:32.360Z,5.10
2018-09-26T11:51:41.248Z,1.53
2018-09-26T11:56:48.234Z,3.50
2018-09-26T12:01:51.938Z,4.37
2018-09-26T12:06:55.551Z,2.63
2018-09-26T12:11:59.452Z,5.40
2018-09-26T12:17:03.021Z,3.97
2018-09-26T12:22:06.889Z,3.43
2018-09-26T12:27:10.397Z,4.33
2018-09-26T12:32:14.248Z,5.20
2018-09-26T12:37:17.776Z,4.07
2018-09-26T12:42:21.347Z,4.97
2018-09-26T12:47:24.883Z,3.30
2018-09-26T12:52:28.433Z,4.80
2018-09-26T12:57:32.065Z,3.00
2018-09-26T13:02:35.815Z,2.23
2018-09-26T13:07:39.428Z,5.43
2018-09-26T13:12:42.999Z,4.90
2018-09-26T13:17:46.622Z,2.20
2018-09-26T13:22:50.321Z,3.63
2018-09-26T13:27:59.921Z,3.30
2018-09-26T13:33:09.247Z,2.40
2018-09-26T13:38:26.079Z,1.90
2018-09-26T13:43:29.903Z,2.40
2018-09-26T13:48:35.057Z,1.83
2018-09-26T13:53:40.863Z,4.17
2018-09-26T13:58:50.687Z,2.53
2018-09-26T14:03:54.216Z,5.63
2018-09-26T14:08:57.857Z,3.50
2018-09-26T14:14:01.433Z,2.17
2018-09-26T14:19:05.090Z,3.30
2018-09-26T14:24:09.036Z,2.63
2018-09-26T14:29:12.937Z,6.23
2018-09-26T14:34:16.839Z,1.53
2018-09-26T14:39:20.947Z,4.40
2018-09-26T14:44:24.852Z,3.80
2018-09-26T14:49:28.750Z,2.80
2018-09-26T14:54:32.578Z,3.13
2018-09-26T14:59:36.385Z,6.00
2018-09-26T15:04:40.263Z,4.07
2018-09-26T15:09:44.141Z,4.23
2018-09-26T15:14:48.022Z,5.00
2018-09-26T15:19:57.163Z,2.77
2018-09-26T15:25:00.965Z,2.97
2018-09-26T15:30:05.038Z,3.13
2018-09-26T15:35:08.968Z,4.03
2018-09-26T15:40:12.922Z,3.13
2018-09-26T15:45:16.701Z,2.30
2018-09-26T15:50:20.564Z,3.30
2018-09-26T15:55:24.405Z,4.40
2018-09-26T16:00:28.757Z,2.70
2018-09-26T16:05:32.456Z,4.87
2018-09-26T16:10:36.083Z,9.10
2018-09-26T16:15:39.708Z,3.23
2018-09-26T16:20:43.433Z,2.50
2018-09-26T16:25:47.098Z,5.07
2018-09-26T16:30:50.964Z,3.13
2018-09-26T16:35:54.528Z,6.90
2018-09-26T16:40:58.356Z,5.57
2018-09-26T16:46:02.248Z,2.93
2018-09-26T16:51:06.353Z,3.87
2018-09-26T16:56:09.934Z,6.47
2018-09-26T17:01:13.454Z,5.80
2018-09-26T17:06:17.022Z,4.70
2018-09-26T17:11:20.711Z,4.47
2018-09-26T17:16:24.602Z,2.73
2018-09-26T17:21:28.140Z,5.30
2018-09-26T17:26:31.860Z,3.57
2018-09-26T17:31:35.896Z,7.07
2018-09-26T17:36:39.531Z,4.20
2018-09-26T17:41:43.469Z,5.00
2018-09-26T17:46:47.223Z,6.07
2018-09-26T17:51:51.594Z,7.57
2018-09-26T17:56:57.341Z,2.93
2018-09-26T18:02:01.116Z,8.47
2018-09-26T18:07:04.695Z,7.80
2018-09-26T18:12:15.327Z,4.70
2018-09-26T18:17:18.958Z,4.90
2018-09-26T18:22:22.468Z,4.67
2018-09-26T18:27:26.098Z,4.07
2018-09-26T18:32:29.623Z,8.20
2018-09-26T18:37:33.220Z,2.73
2018-09-26T18:42:36.866Z,6.40
2018-09-26T18:47:40.513Z,4.13
2018-09-26T18:52:44.126Z,11.00
2018-09-26T18:57:47.875Z,4.07
2018-09-26T19:02:53.031Z,4.23
2018-09-26T19:07:58.067Z,6.97
2018-09-26T19:13:03.088Z,4.73
2018-09-26T19:18:09.483Z,6.60
2018-09-26T19:23:14.372Z,8.07
2018-09-26T19:28:19.848Z,6.70
2018-09-26T19:33:25.231Z,4.30
2018-09-26T19:38:30.746Z,3.93
2018-09-26T19:43:35.803Z,3.53
2018-09-26T19:48:41.367Z,4.43
2018-09-26T19:53:46.316Z,2.53
2018-09-26T19:58:52.212Z,5.67
2018-09-26T20:03:57.074Z,3.23
2018-09-26T20:09:02.636Z,2.83
2018-09-26T20:14:07.549Z,3.87
2018-09-26T20:19:11.451Z,5.13
2018-09-26T20:24:15.407Z,7.10
2018-09-26T20:29:19.050Z,4.20
2018-09-26T20:34:22.591Z,2.90
2018-09-26T20:39:26.129Z,3.20
2018-09-26T20:44:29.711Z,5.03
2018-09-26T20:49:33.517Z,5.03
2018-09-26T20:54:37.140Z,5.23
2018-09-26T20:59:40.630Z,5.97
2018-09-26T21:04:44.319Z,4.93
2018-09-26T21:09:47.892Z,6.13
2018-09-26T21:14:51.597Z,6.17
2018-09-26T21:19:55.225Z,6.60
2018-09-26T21:24:59.334Z,5.73
2018-09-26T21:30:03.679Z,4.87
2018-09-26T21:35:08.363Z,3.37
2018-09-26T21:40:12.001Z,4.23
2018-09-26T21:45:15.554Z,3.60
2018-09-26T21:50:19.379Z,3.17
2018-09-26T21:55:22.869Z,8.37
2018-09-26T22:00:29.190Z,6.47
2018-09-26T22:05:32.694Z,7.03
2018-09-26T22:10:36.299Z,9.83
2018-09-26T22:15:39.874Z,3.93
2018-09-26T22:20:45.280Z,4.60
2018-09-26T22:25:48.907Z,6.30
2018-09-26T22:30:52.552Z,4.27
2018-09-26T22:35:56.080Z,4.67
2018-09-26T22:40:59.703Z,5.47
2018-09-26T22:46:03.232Z,9.97
2018-09-26T22:51:06.832Z,5.17
2018-09-26T22:56:10.346Z,9.13
2018-09-26T23:01:13.988Z,8.70
2018-09-26T23:06:17.561Z,5.13
2018-09-26T23:11:21.197Z,7.87
2018-09-26T23:16:24.927Z,7.03
2018-09-26T23:21:28.479Z,10.40
2018-09-26T23:26:32.085Z,6.00
2018-09-26T23:31:35.600Z,4.33
2018-09-26T23:36:39.117Z,6.17
2018-09-26T23:41:42.718Z,6.33
2018-09-26T23:46:46.322Z,5.77
2018-09-26T23:51:49.916Z,5.70
2018-09-26T23:56:53.477Z,4.47
